sensor_id;sensor_type;location;lat;lon;timestamp;P1;P2;P0
56495;PMS5003;42804;55.762;38.084;2023-07-28T00:00:14;21.00;20.00;12.75
56495;PMS5003;42804;55.762;38.084;2023-07-28T00:02:44;29.00;26.75;20.00
56495;PMS5003;42804;55.762;38.084;2023-07-28T00:05:12;28.50;27.75;19.25
56495;PMS5003;42804;55.762;38.084;2023-07-28T00:07:40;28.75;27.00;17.25
56495;PMS5003;42804;55.762;38.084;2023-07-28T00:10:11;31.00;30.50;19.25
56495;PMS5003;42804;55.762;38.084;2023-07-28T00:12:40;27.75;26.75;20.50
56495;PMS5003;42804;55.762;38.084;2023-07-28T00:15:08;25.00;24.75;19.50
56495;PMS5003;42804;55.762;38.084;2023-07-28T00:17:37;30.25;30.00;20.75
56495;PMS5003;42804;55.762;38.084;2023-07-28T00:20:07;31.50;28.50;19.75
56495;PMS5003;42804;55.762;38.084;2023-07-28T00:22:36;30.00;29.50;21.50
56495;PMS5003;42804;55.762;38.084;2023-07-28T00:25:04;31.50;29.00;18.25
56495;PMS5003;42804;55.762;38.084;2023-07-28T00:27:33;26.75;26.25;18.75
56495;PMS5003;42804;55.762;38.084;2023-07-28T00:30:01;28.50;27.25;20.00
56495;PMS5003;42804;55.762;38.084;2023-07-28T00:32:31;28.00;27.00;17.75
56495;PMS5003;42804;55.762;38.084;2023-07-28T00:35:00;32.75;31.00;20.75
56495;PMS5003;42804;55.762;38.084;2023-07-28T00:37:31;28.75;27.75;21.00
56495;PMS5003;42804;55.762;38.084;2023-07-28T00:39:59;33.25;31.50;21.50
56495;PMS5003;42804;55.762;38.084;2023-07-28T00:42:29;29.75;28.00;19.00
56495;PMS5003;42804;55.762;38.084;2023-07-28T00:44:58;27.75;27.00;18.50
56495;PMS5003;42804;55.762;38.084;2023-07-28T00:47:26;28.00;27.50;19.00
56495;PMS5003;42804;55.762;38.084;2023-07-28T00:49:55;32.75;31.25;21.00
56495;PMS5003;42804;55.762;38.084;2023-07-28T00:52:23;30.00;28.75;19.50
56495;PMS5003;42804;55.762;38.084;2023-07-28T00:54:53;30.75;30.25;20.25
56495;PMS5003;42804;55.762;38.084;2023-07-28T00:57:21;29.75;28.50;19.25
56495;PMS5003;42804;55.762;38.084;2023-07-28T00:59:49;29.75;28.50;19.50
56495;PMS5003;42804;55.762;38.084;2023-07-28T01:02:18;28.50;26.50;18.50
56495;PMS5003;42804;55.762;38.084;2023-07-28T01:04:47;25.25;22.75;16.50
56495;PMS5003;42804;55.762;38.084;2023-07-28T01:07:17;30.25;28.75;18.50
56495;PMS5003;42804;55.762;38.084;2023-07-28T01:09:52;25.50;24.75;18.50
56495;PMS5003;42804;55.762;38.084;2023-07-28T01:12:23;30.00;28.50;20.00
56495;PMS5003;42804;55.762;38.084;2023-07-28T01:14:51;28.00;27.00;19.25
56495;PMS5003;42804;55.762;38.084;2023-07-28T01:17:20;27.25;26.00;15.50
56495;PMS5003;42804;55.762;38.084;2023-07-28T01:19:50;26.50;26.00;18.75
56495;PMS5003;42804;55.762;38.084;2023-07-28T01:25:13;28.25;27.25;19.00
56495;PMS5003;42804;55.762;38.084;2023-07-28T01:27:43;24.00;22.75;18.00
56495;PMS5003;42804;55.762;38.084;2023-07-28T01:30:15;25.50;24.50;18.75
56495;PMS5003;42804;55.762;38.084;2023-07-28T01:32:43;29.25;27.25;16.50
56495;PMS5003;42804;55.762;38.084;2023-07-28T01:35:12;30.75;28.00;18.25
56495;PMS5003;42804;55.762;38.084;2023-07-28T01:37:40;31.00;29.50;19.75
56495;PMS5003;42804;55.762;38.084;2023-07-28T01:40:08;25.00;23.00;16.50
56495;PMS5003;42804;55.762;38.084;2023-07-28T01:42:37;21.75;20.50;13.00
56495;PMS5003;42804;55.762;38.084;2023-07-28T01:45:07;28.50;27.50;18.50
56495;PMS5003;42804;55.762;38.084;2023-07-28T01:47:35;27.25;26.75;18.50
56495;PMS5003;42804;55.762;38.084;2023-07-28T01:50:04;28.67;27.67;20.00
56495;PMS5003;42804;55.762;38.084;2023-07-28T01:52:32;29.00;28.25;19.75
56495;PMS5003;42804;55.762;38.084;2023-07-28T01:55:01;28.00;27.75;17.75
56495;PMS5003;42804;55.762;38.084;2023-07-28T01:57:32;27.75;26.75;19.00
56495;PMS5003;42804;55.762;38.084;2023-07-28T02:00:00;24.50;24.50;15.75
56495;PMS5003;42804;55.762;38.084;2023-07-28T02:02:41;29.25;28.50;19.50
56495;PMS5003;42804;55.762;38.084;2023-07-28T02:05:11;28.50;27.75;18.25
56495;PMS5003;42804;55.762;38.084;2023-07-28T02:07:39;27.75;26.00;18.00
56495;PMS5003;42804;55.762;38.084;2023-07-28T02:10:07;30.75;28.75;20.00
56495;PMS5003;42804;55.762;38.084;2023-07-28T02:12:37;24.50;24.50;17.75
56495;PMS5003;42804;55.762;38.084;2023-07-28T02:15:06;26.50;25.50;18.50
56495;PMS5003;42804;55.762;38.084;2023-07-28T02:17:35;29.75;28.00;18.50
56495;PMS5003;42804;55.762;38.084;2023-07-28T02:20:06;27.00;25.75;19.00
56495;PMS5003;42804;55.762;38.084;2023-07-28T02:22:37;16.75;16.75;11.75
56495;PMS5003;42804;55.762;38.084;2023-07-28T02:25:06;26.75;26.00;18.25
56495;PMS5003;42804;55.762;38.084;2023-07-28T02:27:34;26.75;26.75;19.75
56495;PMS5003;42804;55.762;38.084;2023-07-28T02:30:03;28.50;27.00;18.75
56495;PMS5003;42804;55.762;38.084;2023-07-28T02:32:32;27.75;27.50;19.25
56495;PMS5003;42804;55.762;38.084;2023-07-28T02:35:00;26.50;25.75;18.75
56495;PMS5003;42804;55.762;38.084;2023-07-28T02:37:31;29.75;29.00;19.25
56495;PMS5003;42804;55.762;38.084;2023-07-28T02:39:59;25.75;24.75;16.25
56495;PMS5003;42804;55.762;38.084;2023-07-28T02:42:31;29.00;25.50;17.25
56495;PMS5003;42804;55.762;38.084;2023-07-28T02:45:00;25.50;24.00;17.50
56495;PMS5003;42804;55.762;38.084;2023-07-28T02:47:30;27.00;26.50;18.25
56495;PMS5003;42804;55.762;38.084;2023-07-28T02:49:58;22.25;22.25;14.75
56495;PMS5003;42804;55.762;38.084;2023-07-28T02:52:27;25.50;23.75;17.00
56495;PMS5003;42804;55.762;38.084;2023-07-28T02:54:57;26.00;24.25;17.25
56495;PMS5003;42804;55.762;38.084;2023-07-28T02:57:30;28.75;27.50;19.00
56495;PMS5003;42804;55.762;38.084;2023-07-28T02:59:59;27.00;23.00;14.75
56495;PMS5003;42804;55.762;38.084;2023-07-28T03:02:30;25.50;23.75;17.00
56495;PMS5003;42804;55.762;38.084;2023-07-28T03:04:59;21.00;20.25;15.25
56495;PMS5003;42804;55.762;38.084;2023-07-28T03:08:00;25.75;24.75;16.00
56495;PMS5003;42804;55.762;38.084;2023-07-28T03:10:29;21.75;20.75;13.25
56495;PMS5003;42804;55.762;38.084;2023-07-28T03:12:58;25.25;24.75;17.00
56495;PMS5003;42804;55.762;38.084;2023-07-28T03:15:26;24.00;24.00;16.50
56495;PMS5003;42804;55.762;38.084;2023-07-28T03:17:54;24.25;21.50;16.00
56495;PMS5003;42804;55.762;38.084;2023-07-28T03:20:23;25.00;22.50;15.50
56495;PMS5003;42804;55.762;38.084;2023-07-28T03:22:51;24.00;22.75;17.00
56495;PMS5003;42804;55.762;38.084;2023-07-28T03:25:21;24.25;23.00;17.00
56495;PMS5003;42804;55.762;38.084;2023-07-28T03:27:51;27.00;24.00;17.00
56495;PMS5003;42804;55.762;38.084;2023-07-28T03:30:19;24.00;22.25;15.50
56495;PMS5003;42804;55.762;38.084;2023-07-28T03:32:48;23.75;23.75;16.00
56495;PMS5003;42804;55.762;38.084;2023-07-28T03:35:16;22.00;20.50;14.50
56495;PMS5003;42804;55.762;38.084;2023-07-28T03:37:52;22.50;21.75;16.00
56495;PMS5003;42804;55.762;38.084;2023-07-28T03:40:21;20.25;20.00;16.00
56495;PMS5003;42804;55.762;38.084;2023-07-28T03:42:53;22.00;21.75;16.00
56495;PMS5003;42804;55.762;38.084;2023-07-28T03:45:22;22.75;22.00;15.50
56495;PMS5003;42804;55.762;38.084;2023-07-28T03:47:50;16.50;15.50;10.00
56495;PMS5003;42804;55.762;38.084;2023-07-28T03:50:18;22.50;21.75;15.50
56495;PMS5003;42804;55.762;38.084;2023-07-28T03:52:47;20.75;20.50;16.50
56495;PMS5003;42804;55.762;38.084;2023-07-28T03:55:15;22.50;21.00;15.50
56495;PMS5003;42804;55.762;38.084;2023-07-28T03:57:43;21.25;21.25;16.00
56495;PMS5003;42804;55.762;38.084;2023-07-28T04:00:13;23.50;21.00;14.75
56495;PMS5003;42804;55.762;38.084;2023-07-28T04:02:42;23.75;22.50;16.25
56495;PMS5003;42804;55.762;38.084;2023-07-28T04:05:10;21.25;20.75;14.00
56495;PMS5003;42804;55.762;38.084;2023-07-28T04:07:39;25.50;25.00;18.75
56495;PMS5003;42804;55.762;38.084;2023-07-28T04:10:07;25.50;25.00;18.00
56495;PMS5003;42804;55.762;38.084;2023-07-28T04:12:35;27.75;26.75;17.50
56495;PMS5003;42804;55.762;38.084;2023-07-28T04:15:04;20.75;18.75;14.50
56495;PMS5003;42804;55.762;38.084;2023-07-28T04:17:34;25.25;24.25;16.75
56495;PMS5003;42804;55.762;38.084;2023-07-28T04:20:02;22.50;22.00;13.25
56495;PMS5003;42804;55.762;38.084;2023-07-28T04:22:31;19.50;18.25;12.00
56495;PMS5003;42804;55.762;38.084;2023-07-28T04:24:59;22.75;22.25;14.75
56495;PMS5003;42804;55.762;38.084;2023-07-28T04:27:29;27.50;24.00;16.00
56495;PMS5003;42804;55.762;38.084;2023-07-28T04:30:01;25.25;23.25;18.00
56495;PMS5003;42804;55.762;38.084;2023-07-28T04:32:30;23.00;21.75;15.75
56495;PMS5003;42804;55.762;38.084;2023-07-28T04:35:07;23.00;22.75;13.75
56495;PMS5003;42804;55.762;38.084;2023-07-28T04:37:41;23.25;22.50;15.00
56495;PMS5003;42804;55.762;38.084;2023-07-28T04:40:12;23.25;22.50;15.50
56495;PMS5003;42804;55.762;38.084;2023-07-28T04:42:43;22.00;22.00;14.50
56495;PMS5003;42804;55.762;38.084;2023-07-28T04:45:11;21.00;18.50;13.00
56495;PMS5003;42804;55.762;38.084;2023-07-28T04:47:39;23.75;22.00;15.75
56495;PMS5003;42804;55.762;38.084;2023-07-28T04:50:10;23.50;23.00;15.00
56495;PMS5003;42804;55.762;38.084;2023-07-28T04:53:01;17.50;17.25;12.75
56495;PMS5003;42804;55.762;38.084;2023-07-28T04:55:55;24.25;21.75;14.00
56495;PMS5003;42804;55.762;38.084;2023-07-28T04:58:23;21.00;20.00;14.75
56495;PMS5003;42804;55.762;38.084;2023-07-28T05:00:53;19.00;18.50;13.00
56495;PMS5003;42804;55.762;38.084;2023-07-28T05:03:21;18.00;18.00;12.00
56495;PMS5003;42804;55.762;38.084;2023-07-28T05:05:58;16.50;16.50;12.00
56495;PMS5003;42804;55.762;38.084;2023-07-28T05:08:27;13.25;13.25;10.00
56495;PMS5003;42804;55.762;38.084;2023-07-28T05:10:55;16.50;15.75;10.25
56495;PMS5003;42804;55.762;38.084;2023-07-28T05:13:24;13.25;13.00;8.50
56495;PMS5003;42804;55.762;38.084;2023-07-28T05:15:55;11.50;11.50;9.75
56495;PMS5003;42804;55.762;38.084;2023-07-28T05:18:46;13.25;13.25;9.00
56495;PMS5003;42804;55.762;38.084;2023-07-28T05:21:41;14.50;14.50;10.75
56495;PMS5003;42804;55.762;38.084;2023-07-28T05:24:13;13.75;13.00;9.00
56495;PMS5003;42804;55.762;38.084;2023-07-28T05:26:41;12.00;11.75;8.75
56495;PMS5003;42804;55.762;38.084;2023-07-28T05:29:10;13.00;12.50;8.25
56495;PMS5003;42804;55.762;38.084;2023-07-28T05:31:38;11.00;11.00;8.50
56495;PMS5003;42804;55.762;38.084;2023-07-28T05:34:18;13.25;12.00;9.00
56495;PMS5003;42804;55.762;38.084;2023-07-28T05:36:47;13.00;12.25;8.25
56495;PMS5003;42804;55.762;38.084;2023-07-28T05:39:16;13.00;13.00;9.20
56495;PMS5003;42804;55.762;38.084;2023-07-28T05:41:45;11.40;11.40;8.40
56495;PMS5003;42804;55.762;38.084;2023-07-28T05:44:13;12.40;10.60;7.00
56495;PMS5003;42804;55.762;38.084;2023-07-28T05:46:42;7.60;7.00;5.20
56495;PMS5003;42804;55.762;38.084;2023-07-28T05:49:11;8.00;7.00;6.00
56495;PMS5003;42804;55.762;38.084;2023-07-28T05:51:40;9.20;8.60;6.20
56495;PMS5003;42804;55.762;38.084;2023-07-28T05:54:13;9.40;8.60;6.00
56495;PMS5003;42804;55.762;38.084;2023-07-28T05:56:42;10.80;10.80;7.40
56495;PMS5003;42804;55.762;38.084;2023-07-28T05:59:10;6.00;5.20;4.20
56495;PMS5003;42804;55.762;38.084;2023-07-28T06:01:42;5.60;5.60;4.60
56495;PMS5003;42804;55.762;38.084;2023-07-28T06:04:12;8.50;7.50;5.75
56495;PMS5003;42804;55.762;38.084;2023-07-28T06:06:45;7.20;7.20;5.60
56495;PMS5003;42804;55.762;38.084;2023-07-28T06:09:17;8.20;7.20;5.20
56495;PMS5003;42804;55.762;38.084;2023-07-28T06:11:45;2.40;2.40;1.20
56495;PMS5003;42804;55.762;38.084;2023-07-28T06:14:14;7.40;7.40;4.40
56495;PMS5003;42804;55.762;38.084;2023-07-28T06:16:42;7.00;6.80;5.00
56495;PMS5003;42804;55.762;38.084;2023-07-28T06:19:10;5.40;5.40;3.60
56495;PMS5003;42804;55.762;38.084;2023-07-28T06:21:41;8.20;6.60;5.40
56495;PMS5003;42804;55.762;38.084;2023-07-28T06:24:09;7.00;7.00;5.20
56495;PMS5003;42804;55.762;38.084;2023-07-28T06:26:39;7.60;7.00;4.60
56495;PMS5003;42804;55.762;38.084;2023-07-28T06:29:07;9.60;9.00;4.40
56495;PMS5003;42804;55.762;38.084;2023-07-28T06:31:35;8.20;7.60;5.60
56495;PMS5003;42804;55.762;38.084;2023-07-28T06:34:04;8.80;7.80;6.00
56495;PMS5003;42804;55.762;38.084;2023-07-28T06:36:32;8.60;8.60;6.20
56495;PMS5003;42804;55.762;38.084;2023-07-28T06:39:00;8.20;8.20;5.20
56495;PMS5003;42804;55.762;38.084;2023-07-28T06:41:29;8.80;8.80;5.20
56495;PMS5003;42804;55.762;38.084;2023-07-28T06:44:01;8.40;8.40;6.40
56495;PMS5003;42804;55.762;38.084;2023-07-28T06:46:30;7.60;7.60;5.00
56495;PMS5003;42804;55.762;38.084;2023-07-28T06:48:58;6.00;6.00;5.00
56495;PMS5003;42804;55.762;38.084;2023-07-28T06:51:27;8.75;7.75;5.00
56495;PMS5003;42804;55.762;38.084;2023-07-28T06:53:55;5.60;5.20;4.20
56495;PMS5003;42804;55.762;38.084;2023-07-28T06:56:24;9.00;9.00;6.00
56495;PMS5003;42804;55.762;38.084;2023-07-28T06:58:52;6.20;6.00;4.60
56495;PMS5003;42804;55.762;38.084;2023-07-28T07:01:40;6.40;6.20;4.00
56495;PMS5003;42804;55.762;38.084;2023-07-28T07:04:08;8.20;8.00;5.60
56495;PMS5003;42804;55.762;38.084;2023-07-28T07:06:36;7.00;6.80;4.40
56495;PMS5003;42804;55.762;38.084;2023-07-28T07:09:05;9.80;9.00;6.60
56495;PMS5003;42804;55.762;38.084;2023-07-28T07:11:33;8.20;8.20;6.00
56495;PMS5003;42804;55.762;38.084;2023-07-28T07:14:02;8.60;8.60;5.40
56495;PMS5003;42804;55.762;38.084;2023-07-28T07:16:32;6.60;6.40;4.00
56495;PMS5003;42804;55.762;38.084;2023-07-28T07:19:02;8.20;8.20;4.60
56495;PMS5003;42804;55.762;38.084;2023-07-28T07:21:30;7.80;7.40;5.00
56495;PMS5003;42804;55.762;38.084;2023-07-28T07:24:00;6.80;6.60;5.60
56495;PMS5003;42804;55.762;38.084;2023-07-28T07:26:28;8.60;8.60;6.60
56495;PMS5003;42804;55.762;38.084;2023-07-28T07:28:58;10.00;10.00;6.00
56495;PMS5003;42804;55.762;38.084;2023-07-28T07:31:26;9.25;8.50;6.00
56495;PMS5003;42804;55.762;38.084;2023-07-28T07:33:55;11.25;10.25;7.00
56495;PMS5003;42804;55.762;38.084;2023-07-28T07:36:25;10.50;9.75;7.00
56495;PMS5003;42804;55.762;38.084;2023-07-28T07:38:53;10.00;9.25;7.50
56495;PMS5003;42804;55.762;38.084;2023-07-28T07:41:21;10.50;9.00;5.75
56495;PMS5003;42804;55.762;38.084;2023-07-28T07:43:52;8.75;8.75;6.00
56495;PMS5003;42804;55.762;38.084;2023-07-28T07:46:20;10.20;10.20;7.00
56495;PMS5003;42804;55.762;38.084;2023-07-28T07:48:49;12.00;12.00;9.25
56495;PMS5003;42804;55.762;38.084;2023-07-28T07:51:19;12.25;12.25;9.00
56495;PMS5003;42804;55.762;38.084;2023-07-28T07:53:48;11.00;10.50;7.25
56495;PMS5003;42804;55.762;38.084;2023-07-28T07:56:17;22.00;22.00;19.50
56495;PMS5003;42804;55.762;38.084;2023-07-28T07:58:45;8.00;8.00;5.67
56495;PMS5003;42804;55.762;38.084;2023-07-28T08:01:14;7.50;7.50;5.25
56495;PMS5003;42804;55.762;38.084;2023-07-28T08:03:42;8.00;8.00;6.00
56495;PMS5003;42804;55.762;38.084;2023-07-28T08:06:10;6.25;6.25;4.25
56495;PMS5003;42804;55.762;38.084;2023-07-28T08:08:39;7.00;6.75;4.50
56495;PMS5003;42804;55.762;38.084;2023-07-28T08:11:12;9.00;9.00;6.20
56495;PMS5003;42804;55.762;38.084;2023-07-28T08:13:40;7.00;7.00;5.40
56495;PMS5003;42804;55.762;38.084;2023-07-28T08:16:08;7.00;7.00;5.00
56495;PMS5003;42804;55.762;38.084;2023-07-28T08:18:37;6.75;6.75;4.75
56495;PMS5003;42804;55.762;38.084;2023-07-28T08:21:05;8.75;8.25;6.50
56495;PMS5003;42804;55.762;38.084;2023-07-28T08:23:33;3.40;3.40;1.80
56495;PMS5003;42804;55.762;38.084;2023-07-28T08:26:01;8.00;7.00;4.75
56495;PMS5003;42804;55.762;38.084;2023-07-28T08:28:31;7.50;6.75;4.00
56495;PMS5003;42804;55.762;38.084;2023-07-28T08:31:00;6.75;6.25;4.75
56495;PMS5003;42804;55.762;38.084;2023-07-28T08:33:30;6.75;6.50;4.50
56495;PMS5003;42804;55.762;38.084;2023-07-28T08:35:58;7.00;7.00;5.00
56495;PMS5003;42804;55.762;38.084;2023-07-28T08:38:30;5.40;5.20;3.40
56495;PMS5003;42804;55.762;38.084;2023-07-28T08:40:59;8.75;7.75;4.25
56495;PMS5003;42804;55.762;38.084;2023-07-28T08:43:27;7.00;7.00;4.00
56495;PMS5003;42804;55.762;38.084;2023-07-28T08:45:57;6.80;6.20;4.20
56495;PMS5003;42804;55.762;38.084;2023-07-28T08:48:25;0.00;0.00;0.00
56495;PMS5003;42804;55.762;38.084;2023-07-28T08:50:53;6.80;6.00;4.40
56495;PMS5003;42804;55.762;38.084;2023-07-28T08:53:22;8.75;7.50;4.25
56495;PMS5003;42804;55.762;38.084;2023-07-28T08:55:51;6.00;5.25;3.50
56495;PMS5003;42804;55.762;38.084;2023-07-28T08:58:21;8.25;7.50;4.25
56495;PMS5003;42804;55.762;38.084;2023-07-28T09:00:52;7.50;7.50;5.75
56495;PMS5003;42804;55.762;38.084;2023-07-28T09:03:22;7.75;6.75;3.50
56495;PMS5003;42804;55.762;38.084;2023-07-28T09:05:58;7.00;7.00;4.25
56495;PMS5003;42804;55.762;38.084;2023-07-28T09:08:27;1.60;1.60;1.00
56495;PMS5003;42804;55.762;38.084;2023-07-28T09:10:55;6.80;5.80;4.20
56495;PMS5003;42804;55.762;38.084;2023-07-28T09:13:24;6.75;6.25;5.25
56495;PMS5003;42804;55.762;38.084;2023-07-28T09:15:53;6.00;4.60;3.60
56495;PMS5003;42804;55.762;38.084;2023-07-28T09:18:22;4.00;3.80;3.80
56495;PMS5003;42804;55.762;38.084;2023-07-28T09:20:54;6.80;5.60;4.00
56495;PMS5003;42804;55.762;38.084;2023-07-28T09:23:27;8.00;8.00;4.20
56495;PMS5003;42804;55.762;38.084;2023-07-28T09:25:58;6.40;6.20;3.80
56495;PMS5003;42804;55.762;38.084;2023-07-28T09:28:35;5.20;5.00;3.20
56495;PMS5003;42804;55.762;38.084;2023-07-28T09:31:04;6.80;6.80;4.60
56495;PMS5003;42804;55.762;38.084;2023-07-28T09:33:35;7.20;6.80;4.80
56495;PMS5003;42804;55.762;38.084;2023-07-28T09:36:07;7.00;6.00;4.40
56495;PMS5003;42804;55.762;38.084;2023-07-28T09:38:37;5.80;5.60;3.80
56495;PMS5003;42804;55.762;38.084;2023-07-28T09:41:07;8.80;7.00;4.60
56495;PMS5003;42804;55.762;38.084;2023-07-28T09:43:37;6.60;6.20;4.60
56495;PMS5003;42804;55.762;38.084;2023-07-28T09:46:16;6.80;6.00;3.60
56495;PMS5003;42804;55.762;38.084;2023-07-28T09:48:46;10.00;9.00;6.00
56495;PMS5003;42804;55.762;38.084;2023-07-28T09:51:18;7.80;7.80;4.80
56495;PMS5003;42804;55.762;38.084;2023-07-28T09:53:48;9.50;8.75;7.00
56495;PMS5003;42804;55.762;38.084;2023-07-28T09:56:17;7.75;7.75;4.75
56495;PMS5003;42804;55.762;38.084;2023-07-28T09:58:49;8.00;8.00;5.60
56495;PMS5003;42804;55.762;38.084;2023-07-28T10:01:18;9.25;9.25;6.00
56495;PMS5003;42804;55.762;38.084;2023-07-28T10:03:50;7.20;7.20;5.40
56495;PMS5003;42804;55.762;38.084;2023-07-28T10:06:19;8.75;8.25;6.25
56495;PMS5003;42804;55.762;38.084;2023-07-28T10:08:49;11.50;9.50;6.50
56495;PMS5003;42804;55.762;38.084;2023-07-28T10:11:18;11.50;10.75;9.00
56495;PMS5003;42804;55.762;38.084;2023-07-28T10:13:47;15.00;13.00;9.50
56495;PMS5003;42804;55.762;38.084;2023-07-28T10:16:16;10.50;10.50;7.00
56495;PMS5003;42804;55.762;38.084;2023-07-28T10:18:52;13.50;13.25;8.50
56495;PMS5003;42804;55.762;38.084;2023-07-28T10:21:21;9.50;8.50;4.25
56495;PMS5003;42804;55.762;38.084;2023-07-28T10:23:53;14.00;12.00;9.00
56495;PMS5003;42804;55.762;38.084;2023-07-28T10:26:31;11.25;10.50;7.25
56495;PMS5003;42804;55.762;38.084;2023-07-28T10:29:07;10.00;10.00;7.50
56495;PMS5003;42804;55.762;38.084;2023-07-28T10:31:36;11.00;11.00;7.00
56495;PMS5003;42804;55.762;38.084;2023-07-28T10:34:06;9.00;9.00;7.00
56495;PMS5003;42804;55.762;38.084;2023-07-28T10:36:34;12.75;11.50;8.50
56495;PMS5003;42804;55.762;38.084;2023-07-28T10:39:12;11.75;11.50;8.75
56495;PMS5003;42804;55.762;38.084;2023-07-28T10:42:00;12.75;12.75;9.00
56495;PMS5003;42804;55.762;38.084;2023-07-28T10:44:30;12.00;11.25;7.00
56495;PMS5003;42804;55.762;38.084;2023-07-28T10:46:58;13.25;12.75;10.00
56495;PMS5003;42804;55.762;38.084;2023-07-28T10:49:28;13.25;12.00;7.50
56495;PMS5003;42804;55.762;38.084;2023-07-28T10:51:57;16.00;14.00;9.75
56495;PMS5003;42804;55.762;38.084;2023-07-28T10:54:25;12.50;11.50;7.50
56495;PMS5003;42804;55.762;38.084;2023-07-28T10:56:53;14.75;14.00;9.00
56495;PMS5003;42804;55.762;38.084;2023-07-28T10:59:22;12.00;11.80;8.40
56495;PMS5003;42804;55.762;38.084;2023-07-28T11:01:50;13.00;12.00;9.00
56495;PMS5003;42804;55.762;38.084;2023-07-28T11:04:19;11.75;11.50;9.25
56495;PMS5003;42804;55.762;38.084;2023-07-28T11:06:51;11.50;11.50;7.00
56495;PMS5003;42804;55.762;38.084;2023-07-28T11:09:21;12.25;11.50;7.50
56495;PMS5003;42804;55.762;38.084;2023-07-28T11:11:50;13.00;13.00;9.00
56495;PMS5003;42804;55.762;38.084;2023-07-28T11:14:20;15.25;11.75;8.75
56495;PMS5003;42804;55.762;38.084;2023-07-28T11:16:49;13.25;12.50;9.00
56495;PMS5003;42804;55.762;38.084;2023-07-28T11:19:17;12.00;11.75;8.25
56495;PMS5003;42804;55.762;38.084;2023-07-28T11:21:54;8.80;7.20;5.60
56495;PMS5003;42804;55.762;38.084;2023-07-28T11:24:25;12.25;11.50;7.25
56495;PMS5003;42804;55.762;38.084;2023-07-28T11:26:54;6.00;6.00;4.00
56495;PMS5003;42804;55.762;38.084;2023-07-28T11:29:22;9.75;9.75;7.00
56495;PMS5003;42804;55.762;38.084;2023-07-28T11:31:51;12.75;11.00;8.00
56495;PMS5003;42804;55.762;38.084;2023-07-28T11:34:20;11.40;9.80;7.20
56495;PMS5003;42804;55.762;38.084;2023-07-28T11:36:48;9.00;8.25;6.25
56495;PMS5003;42804;55.762;38.084;2023-07-28T11:39:18;8.00;8.00;6.00
56495;PMS5003;42804;55.762;38.084;2023-07-28T11:41:49;9.50;7.75;5.50
56495;PMS5003;42804;55.762;38.084;2023-07-28T11:44:22;7.25;7.25;4.75
56495;PMS5003;42804;55.762;38.084;2023-07-28T11:47:00;10.25;10.25;6.50
56495;PMS5003;42804;55.762;38.084;2023-07-28T11:49:45;9.50;9.50;6.50
56495;PMS5003;42804;55.762;38.084;2023-07-28T11:52:39;7.00;4.00;1.25
56495;PMS5003;42804;55.762;38.084;2023-07-28T11:55:17;11.25;10.75;8.00
56495;PMS5003;42804;55.762;38.084;2023-07-28T11:57:46;9.00;8.20;6.80
56495;PMS5003;42804;55.762;38.084;2023-07-28T12:00:15;11.00;10.25;7.50
56495;PMS5003;42804;55.762;38.084;2023-07-28T12:02:44;8.00;8.00;6.00
56495;PMS5003;42804;55.762;38.084;2023-07-28T12:05:14;8.25;7.50;5.00
56495;PMS5003;42804;55.762;38.084;2023-07-28T12:07:47;8.25;7.25;5.25
56495;PMS5003;42804;55.762;38.084;2023-07-28T12:10:17;8.00;8.00;5.25
56495;PMS5003;42804;55.762;38.084;2023-07-28T12:13:06;7.75;7.75;4.25
56495;PMS5003;42804;55.762;38.084;2023-07-28T12:15:40;11.25;11.00;7.25
56495;PMS5003;42804;55.762;38.084;2023-07-28T12:18:12;9.20;9.00;5.60
56495;PMS5003;42804;55.762;38.084;2023-07-28T12:20:44;10.75;10.75;7.75
56495;PMS5003;42804;55.762;38.084;2023-07-28T12:23:15;10.25;10.00;8.00
56495;PMS5003;42804;55.762;38.084;2023-07-28T12:25:49;17.00;15.75;11.25
56495;PMS5003;42804;55.762;38.084;2023-07-28T12:28:19;11.75;11.00;9.00
56495;PMS5003;42804;55.762;38.084;2023-07-28T12:30:47;7.80;6.60;5.00
56495;PMS5003;42804;55.762;38.084;2023-07-28T12:33:19;12.25;12.00;7.25
56495;PMS5003;42804;55.762;38.084;2023-07-28T12:35:49;11.00;10.00;7.50
56495;PMS5003;42804;55.762;38.084;2023-07-28T12:38:18;11.75;11.75;8.50
56495;PMS5003;42804;55.762;38.084;2023-07-28T12:40:51;13.80;13.60;9.40
56495;PMS5003;42804;55.762;38.084;2023-07-28T12:43:23;12.00;11.25;9.00
56495;PMS5003;42804;55.762;38.084;2023-07-28T12:45:55;11.75;11.00;8.00
56495;PMS5003;42804;55.762;38.084;2023-07-28T12:48:26;11.50;11.25;8.25
56495;PMS5003;42804;55.762;38.084;2023-07-28T12:50:55;13.50;13.00;9.50
56495;PMS5003;42804;55.762;38.084;2023-07-28T12:53:27;13.25;13.25;9.25
56495;PMS5003;42804;55.762;38.084;2023-07-28T12:55:57;14.50;13.75;9.25
56495;PMS5003;42804;55.762;38.084;2023-07-28T12:58:27;13.25;12.75;9.00
56495;PMS5003;42804;55.762;38.084;2023-07-28T13:01:01;17.25;16.00;11.00
56495;PMS5003;42804;55.762;38.084;2023-07-28T13:03:31;19.50;18.50;12.50
56495;PMS5003;42804;55.762;38.084;2023-07-28T13:06:00;20.75;19.25;13.25
56495;PMS5003;42804;55.762;38.084;2023-07-28T13:08:28;22.50;21.00;13.75
56495;PMS5003;42804;55.762;38.084;2023-07-28T13:11:00;26.00;24.75;17.00
56495;PMS5003;42804;55.762;38.084;2023-07-28T13:13:32;29.75;28.00;18.25
56495;PMS5003;42804;55.762;38.084;2023-07-28T13:16:01;29.50;27.75;15.50
56495;PMS5003;42804;55.762;38.084;2023-07-28T13:18:29;31.50;29.25;20.25
56495;PMS5003;42804;55.762;38.084;2023-07-28T13:20:58;29.75;28.50;18.00
56495;PMS5003;42804;55.762;38.084;2023-07-28T13:23:26;28.50;26.75;18.25
56495;PMS5003;42804;55.762;38.084;2023-07-28T13:25:54;27.25;25.75;16.25
56495;PMS5003;42804;55.762;38.084;2023-07-28T13:28:24;31.50;28.50;17.25
56495;PMS5003;42804;55.762;38.084;2023-07-28T13:30:53;29.00;25.50;15.75
56495;PMS5003;42804;55.762;38.084;2023-07-28T13:33:22;28.50;28.00;18.25
56495;PMS5003;42804;55.762;38.084;2023-07-28T13:35:50;30.25;27.50;17.50
56495;PMS5003;42804;55.762;38.084;2023-07-28T13:38:18;25.25;24.50;16.00
56495;PMS5003;42804;55.762;38.084;2023-07-28T13:40:47;29.50;26.25;18.50
56495;PMS5003;42804;55.762;38.084;2023-07-28T13:43:15;29.33;28.33;18.33
56495;PMS5003;42804;55.762;38.084;2023-07-28T13:45:45;12.25;10.50;7.25
56495;PMS5003;42804;55.762;38.084;2023-07-28T13:48:15;24.50;22.50;13.00
56495;PMS5003;42804;55.762;38.084;2023-07-28T13:50:46;25.00;24.25;13.50
56495;PMS5003;42804;55.762;38.084;2023-07-28T13:53:17;21.50;21.00;14.25
56495;PMS5003;42804;55.762;38.084;2023-07-28T13:55:48;28.75;25.50;18.50
56495;PMS5003;42804;55.762;38.084;2023-07-28T13:58:23;31.25;28.50;18.50
56495;PMS5003;42804;55.762;38.084;2023-07-28T14:00:54;28.75;26.00;16.25
56495;PMS5003;42804;55.762;38.084;2023-07-28T14:03:22;22.00;21.50;16.75
56495;PMS5003;42804;55.762;38.084;2023-07-28T14:05:51;28.00;26.25;15.00
56495;PMS5003;42804;55.762;38.084;2023-07-28T14:08:19;24.50;23.50;12.50